Time;durP1;ratioP1;P1;durP2;ratioP2;P2;SDS_P1;SDS_P2;PMS_P1;PMS_P2;Temp;Humidity;BMP_temperature;BMP_pressure;BME280_temperature;BME280_humidity;BME280_pressure;Samples;Min_cycle;Max_cycle;Signal;HPM_P1;HPM_P2
2022/07/29 00:00:25;;;;;;;0.83;0.80;;;22.00;99.90;;;;;;1042505;28;20100;-68
2022/07/29 00:00:56;;;;;;;1.40;1.00;;;22.00;99.90;;;;;;1042815;28;20031;-70
2022/07/29 00:01:27;;;;;;;2.72;0.93;;;22.00;99.90;;;;;;1042229;28;20051;-67
2022/07/29 00:01:58;;;;;;;2.33;1.00;;;22.00;99.90;;;;;;1042592;28;20468;-67
2022/07/29 00:02:29;;;;;;;2.20;1.00;;;22.00;99.90;;;;;;1042315;28;20740;-67
2022/07/29 00:02:59;;;;;;;5.63;1.10;;;22.00;99.90;;;;;;1038516;28;20022;-67
2022/07/29 00:03:30;;;;;;;1.63;1.03;;;22.00;99.90;;;;;;1038419;28;20021;-68
2022/07/29 00:04:00;;;;;;;2.50;0.87;;;21.90;99.90;;;;;;1038741;28;20048;-68
2022/07/29 00:04:34;;;;;;;2.53;0.90;;;22.00;99.90;;;;;;1038400;28;20104;-68
2022/07/29 00:05:05;;;;;;;2.35;0.80;;;22.00;99.90;;;;;;1042885;28;20210;-67
2022/07/29 00:05:37;;;;;;;0.80;0.80;;;21.90;99.90;;;;;;1043009;28;20029;-68
2022/07/29 00:06:08;;;;;;;1.73;0.85;;;21.90;99.90;;;;;;1042946;28;20195;-68
2022/07/29 00:06:40;;;;;;;1.13;0.63;;;21.90;99.90;;;;;;1042562;28;20408;-68
2022/07/29 00:07:10;;;;;;;1.15;0.65;;;22.00;99.90;;;;;;1042551;28;20486;-68
2022/07/29 00:07:41;;;;;;;0.77;0.60;;;21.90;99.90;;;;;;1042633;28;20548;-67
2022/07/29 00:08:12;;;;;;;1.77;0.97;;;21.90;99.90;;;;;;1042495;28;20055;-67
2022/07/29 00:08:42;;;;;;;1.37;0.97;;;21.90;99.90;;;;;;1042777;28;20028;-66
2022/07/29 00:09:13;;;;;;;2.63;1.00;;;22.00;99.90;;;;;;1042912;28;20017;-67
2022/07/29 00:09:43;;;;;;;1.40;0.80;;;21.90;99.90;;;;;;1042989;28;20025;-67
2022/07/29 00:10:14;;;;;;;3.43;0.80;;;21.90;99.90;;;;;;1042823;28;20025;-67
2022/07/29 00:10:45;;;;;;;1.30;0.70;;;21.90;99.90;;;;;;1043001;28;20059;-67
2022/07/29 00:11:16;;;;;;;1.63;0.90;;;21.90;99.90;;;;;;1042638;28;20060;-67
2022/07/29 00:11:47;;;;;;;1.33;0.97;;;21.90;99.90;;;;;;1042681;28;20024;-67
2022/07/29 00:12:19;;;;;;;1.35;0.70;;;22.00;99.90;;;;;;1042454;28;20028;-67
2022/07/29 00:12:49;;;;;;;1.67;1.10;;;21.90;99.90;;;;;;1042740;28;20132;-68
2022/07/29 00:13:20;;;;;;;1.40;0.90;;;21.90;99.90;;;;;;1042791;28;20021;-69
2022/07/29 00:13:50;;;;;;;2.47;0.90;;;21.90;99.90;;;;;;1042512;28;20028;-69
2022/07/29 00:14:21;;;;;;;1.33;0.80;;;21.90;99.90;;;;;;1038411;28;20017;-67
2022/07/29 00:14:53;;;;;;;1.50;0.80;;;21.90;99.90;;;;;;1035191;28;20105;-68
2022/07/29 00:15:24;;;;;;;2.13;1.00;;;21.90;99.90;;;;;;1026958;28;20034;-68
2022/07/29 00:15:58;;;;;;;1.40;0.70;;;21.90;99.90;;;;;;1030807;28;20421;-68
2022/07/29 00:16:28;;;;;;;2.75;0.80;;;21.90;99.90;;;;;;1034452;28;20611;-68
2022/07/29 00:16:59;;;;;;;1.70;1.00;;;21.80;99.90;;;;;;1030800;28;20351;-68
2022/07/29 00:17:29;;;;;;;1.73;1.00;;;21.80;99.90;;;;;;1034865;28;20018;-68
2022/07/29 00:18:00;;;;;;;0.93;0.77;;;21.80;99.90;;;;;;1038621;28;20026;-67
2022/07/29 00:18:31;;;;;;;2.37;1.10;;;21.90;99.90;;;;;;1034510;28;20030;-68
2022/07/29 00:19:02;;;;;;;1.17;0.68;;;21.80;99.90;;;;;;1038563;28;20013;-68
2022/07/29 00:19:34;;;;;;;1.02;0.95;;;21.90;99.90;;;;;;1038486;28;20056;-67
2022/07/29 00:20:05;;;;;;;1.05;0.90;;;21.90;99.90;;;;;;1038676;28;20025;-66
2022/07/29 00:20:35;;;;;;;2.55;1.00;;;21.90;99.90;;;;;;1038920;28;20025;-68
2022/07/29 00:21:07;;;;;;;0.97;0.90;;;21.80;99.90;;;;;;1038805;28;20112;-66
2022/07/29 00:21:39;;;;;;;1.27;1.08;;;21.80;99.90;;;;;;1038374;28;20393;-67
2022/07/29 00:22:09;;;;;;;1.65;0.90;;;22.10;99.90;;;;;;1038410;28;20440;-67
2022/07/29 00:22:40;;;;;;;1.17;0.73;;;21.80;99.90;;;;;;1038534;28;20029;-67
2022/07/29 00:23:10;;;;;;;2.70;1.43;;;21.90;99.90;;;;;;1038632;28;20048;-68
2022/07/29 00:23:41;;;;;;;1.27;0.83;;;21.70;99.90;;;;;;1038921;28;20096;-68
2022/07/29 00:24:13;;;;;;;1.27;0.90;;;21.30;99.90;;;;;;1038886;28;20021;-68
2022/07/29 00:24:43;;;;;;;1.58;0.82;;;21.90;99.90;;;;;;1038469;28;20489;-68
2022/07/29 00:25:14;;;;;;;1.27;0.80;;;21.90;99.90;;;;;;1038452;28;20101;-68
2022/07/29 00:25:46;;;;;;;2.53;0.87;;;;;;;;;;1038460;28;20578;-68
2022/07/29 00:26:17;;;;;;;0.85;0.70;;;21.70;99.90;;;;;;1038565;28;20025;-67
2022/07/29 00:26:48;;;;;;;1.58;0.75;;;21.80;99.90;;;;;;1038251;28;20025;-68
2022/07/29 00:27:19;;;;;;;3.17;1.08;;;21.80;99.90;;;;;;1038489;28;20029;-67
2022/07/29 00:27:49;;;;;;;2.20;1.00;;;21.80;99.90;;;;;;1038135;28;20090;-67
2022/07/29 00:28:20;;;;;;;1.43;0.80;;;21.60;99.90;;;;;;1038768;28;20076;-68
2022/07/29 00:28:51;;;;;;;2.13;0.97;;;;;;;;;;1038277;28;20024;-68
2022/07/29 00:29:23;;;;;;;1.52;0.88;;;;;;;;;;1038425;28;20511;-68
2022/07/29 00:29:55;;;;;;;1.95;0.90;;;;;;;;;;1038000;28;20026;-67
2022/07/29 00:30:28;;;;;;;1.27;0.70;;;;;;;;;;1038498;28;20065;-68
2022/07/29 00:31:00;;;;;;;1.00;0.90;;;;;;;;;;1039266;28;20073;-67
2022/07/29 00:31:34;;;;;;;2.05;0.80;;;;;;;;;;1039175;28;20030;-68
2022/07/29 00:32:06;;;;;;;1.70;0.80;;;;;;;;;;1038998;28;20037;-67
2022/07/29 00:32:38;;;;;;;1.50;0.95;;;;;;;;;;1039481;28;20029;-67
2022/07/29 00:33:10;;;;;;;2.22;1.00;;;;;;;;;;1038673;28;20087;-67
2022/07/29 00:33:42;;;;;;;1.10;1.00;;;;;;;;;;1039478;28;20520;-67
2022/07/29 00:35:52;;;;;;;1.05;0.63;;;21.80;99.90;;;;;;1039608;28;20044;-67
2022/07/29 00:36:23;;;;;;;0.93;0.87;;;21.90;99.90;;;;;;1039406;28;20025;-67
2022/07/29 00:36:55;;;;;;;2.08;0.90;;;21.80;99.90;;;;;;1039182;28;20151;-66
2022/07/29 00:37:25;;;;;;;1.30;0.90;;;21.70;99.90;;;;;;1038993;28;20064;-66
2022/07/29 00:37:56;;;;;;;1.23;0.77;;;21.90;99.90;;;;;;1039258;28;20079;-67
2022/07/29 00:38:27;;;;;;;0.80;0.77;;;21.80;99.90;;;;;;1039008;28;20107;-68
2022/07/29 00:38:58;;;;;;;1.00;0.73;;;21.70;99.90;;;;;;1039682;28;20032;-67
2022/07/29 00:39:29;;;;;;;0.97;0.80;;;21.80;99.90;;;;;;1039373;28;20028;-67
2022/07/29 00:40:00;;;;;;;1.25;0.70;;;21.70;99.90;;;;;;1043382;28;20021;-67
2022/07/29 00:40:30;;;;;;;3.23;1.10;;;21.80;99.90;;;;;;1043595;28;20036;-67
2022/07/29 00:41:01;;;;;;;1.23;0.70;;;21.80;99.90;;;;;;1044112;28;20032;-67
2022/07/29 00:41:32;;;;;;;1.33;1.00;;;21.80;99.90;;;;;;1043467;28;20029;-67
2022/07/29 00:42:04;;;;;;;1.63;1.27;;;22.70;99.90;;;;;;1043723;28;20017;-67
2022/07/29 00:42:46;;;;;;;1.00;0.80;;;21.80;99.90;;;;;;1043415;28;20017;-68
2022/07/29 00:43:17;;;;;;;2.25;0.90;;;21.80;99.90;;;;;;1043076;28;20048;-66
2022/07/29 00:43:48;;;;;;;1.35;0.85;;;21.80;99.90;;;;;;1043479;28;20021;-69
2022/07/29 00:44:18;;;;;;;2.58;1.15;;;21.70;99.90;;;;;;1043108;28;20104;-68
2022/07/29 00:44:49;;;;;;;1.73;1.10;;;21.80;99.90;;;;;;1043215;28;20025;-68
2022/07/29 00:45:21;;;;;;;2.07;1.00;;;21.80;99.90;;;;;;1043515;28;20017;-66
2022/07/29 00:45:52;;;;;;;1.65;0.77;;;21.80;99.90;;;;;;1043149;28;20503;-68
2022/07/29 00:46:22;;;;;;;1.27;0.70;;;21.70;99.90;;;;;;1043354;28;20448;-67
2022/07/29 00:46:53;;;;;;;2.43;0.90;;;21.70;99.90;;;;;;1043214;28;20020;-67
2022/07/29 00:47:24;;;;;;;2.97;0.97;;;21.70;99.90;;;;;;1039489;28;20030;-67
2022/07/29 00:47:55;;;;;;;1.58;0.93;;;21.70;99.90;;;;;;1038874;28;20045;-67
2022/07/29 00:48:26;;;;;;;1.17;0.80;;;21.70;99.90;;;;;;1038956;28;20032;-68
2022/07/29 00:48:57;;;;;;;1.40;0.60;;;21.70;99.90;;;;;;1039305;28;20088;-68
2022/07/29 00:49:28;;;;;;;1.50;0.90;;;21.60;99.90;;;;;;1039039;28;20805;-68
2022/07/29 00:49:58;;;;;;;3.00;0.90;;;21.70;99.90;;;;;;1039062;28;20057;-68
2022/07/29 00:50:29;;;;;;;2.10;1.00;;;21.70;99.90;;;;;;1039487;28;20024;-68
2022/07/29 00:51:01;;;;;;;1.90;0.93;;;21.70;99.90;;;;;;1041520;28;20025;-68
2022/07/29 00:51:32;;;;;;;1.73;0.90;;;21.70;99.90;;;;;;1043963;28;20100;-68
2022/07/29 00:52:04;;;;;;;1.53;0.80;;;21.70;99.90;;;;;;1042947;28;20028;-68
2022/07/29 00:52:37;;;;;;;1.58;0.68;;;21.70;99.90;;;;;;1043314;28;20023;-68
2022/07/29 00:53:08;;;;;;;1.60;0.80;;;21.70;99.90;;;;;;1043089;28;20075;-68
2022/07/29 00:53:39;;;;;;;2.53;1.10;;;21.70;99.90;;;;;;1043570;28;20032;-68
2022/07/29 00:54:11;;;;;;;1.20;0.77;;;21.70;99.90;;;;;;1043630;28;20388;-68
2022/07/29 00:54:41;;;;;;;1.13;0.90;;;21.60;99.90;;;;;;1043867;28;20036;-68
2022/07/29 00:55:13;;;;;;;2.43;1.27;;;21.60;99.90;;;;;;1042941;28;20057;-68
2022/07/29 00:55:44;;;;;;;1.73;0.88;;;21.70;99.90;;;;;;1043781;28;20025;-68
2022/07/29 00:56:15;;;;;;;1.30;0.90;;;21.60;99.90;;;;;;1042817;28;20025;-68
2022/07/29 00:56:46;;;;;;;1.30;0.98;;;21.70;99.90;;;;;;1043541;28;20029;-68
2022/07/29 00:57:17;;;;;;;2.63;0.80;;;21.60;99.90;;;;;;1043062;28;20521;-67
2022/07/29 00:57:48;;;;;;;2.00;0.80;;;21.60;99.90;;;;;;1043358;28;20095;-68
2022/07/29 00:58:19;;;;;;;1.35;0.85;;;21.60;99.90;;;;;;1043207;28;20027;-67
2022/07/29 00:58:51;;;;;;;1.63;0.90;;;21.60;99.90;;;;;;1043918;28;20024;-67
2022/07/29 00:59:21;;;;;;;0.80;0.80;;;21.60;99.90;;;;;;1043546;28;20610;-68
2022/07/29 00:59:53;;;;;;;3.23;1.27;;;21.60;99.90;;;;;;1043663;28;20021;-68
2022/07/29 01:00:26;;;;;;;0.70;0.70;;;21.60;99.90;;;;;;1043354;28;20028;-68
2022/07/29 01:00:58;;;;;;;2.70;1.00;;;21.60;99.90;;;;;;1043734;28;20111;-68
2022/07/29 01:01:28;;;;;;;1.77;0.93;;;21.60;99.90;;;;;;1043403;28;20021;-68
2022/07/29 01:01:59;;;;;;;1.53;1.13;;;21.60;99.90;;;;;;1043494;28;20112;-68
2022/07/29 01:02:30;;;;;;;1.10;0.97;;;21.60;99.90;;;;;;1043338;28;20163;-68
2022/07/29 01:03:00;;;;;;;0.90;0.70;;;21.60;99.90;;;;;;1043212;28;20052;-68
2022/07/29 01:03:31;;;;;;;2.00;0.97;;;21.60;99.90;;;;;;1042980;28;20374;-68
2022/07/29 01:04:02;;;;;;;1.50;0.80;;;21.60;99.90;;;;;;1043461;28;20025;-69
2022/07/29 01:04:33;;;;;;;2.00;0.93;;;21.60;99.90;;;;;;1043088;28;20033;-69
2022/07/29 01:05:05;;;;;;;1.52;0.90;;;21.60;99.90;;;;;;1043297;28;20075;-68
2022/07/29 01:05:36;;;;;;;1.23;0.88;;;21.60;99.90;;;;;;1042591;28;20064;-67
2022/07/29 01:06:06;;;;;;;1.10;0.87;;;21.60;99.90;;;;;;1038963;28;20036;-67
2022/07/29 01:06:37;;;;;;;1.13;0.60;;;21.60;99.90;;;;;;1039115;28;20755;-69
2022/07/29 01:07:08;;;;;;;1.53;0.93;;;21.60;99.90;;;;;;1043229;28;20377;-68
2022/07/29 01:07:39;;;;;;;1.70;0.70;;;21.60;99.90;;;;;;1042984;28;20308;-68
2022/07/29 01:08:12;;;;;;;1.73;1.10;;;21.60;99.90;;;;;;1043282;28;20107;-68
2022/07/29 01:08:45;;;;;;;1.20;1.08;;;21.60;99.90;;;;;;1043623;28;20029;-68
2022/07/29 01:09:16;;;;;;;1.17;0.65;;;;;;;;;;1043565;28;20043;-68
2022/07/29 01:09:47;;;;;;;0.82;0.65;;;21.60;99.90;;;;;;1043006;28;20120;-68
2022/07/29 01:10:20;;;;;;;1.80;0.90;;;21.60;99.90;;;;;;1043178;28;20025;-68
2022/07/29 01:10:53;;;;;;;0.80;0.77;;;21.60;99.90;;;;;;1041914;28;20044;-68
2022/07/29 01:11:24;;;;;;;1.13;0.70;;;21.60;99.90;;;;;;1035849;28;20095;-67
2022/07/29 01:11:55;;;;;;;1.20;0.73;;;21.60;99.90;;;;;;1038765;28;20067;-68
2022/07/29 01:12:28;;;;;;;2.35;0.95;;;21.60;99.90;;;;;;1039029;28;20631;-67
2022/07/29 01:13:00;;;;;;;1.05;0.82;;;21.60;99.90;;;;;;1039041;28;20013;-68
2022/07/29 01:13:33;;;;;;;2.08;1.08;;;21.60;99.90;;;;;;1039094;28;20029;-68
2022/07/29 01:14:06;;;;;;;2.35;0.98;;;21.60;99.90;;;;;;1034705;28;20050;-68
2022/07/29 01:14:38;;;;;;;1.90;0.93;;;21.60;99.90;;;;;;1034912;28;20014;-68
2022/07/29 01:15:09;;;;;;;1.50;0.90;;;21.60;99.90;;;;;;1035535;28;20092;-68
2022/07/29 01:15:45;;;;;;;4.05;1.00;;;21.60;99.90;;;;;;1039147;28;20097;-68
2022/07/29 01:16:22;;;;;;;1.40;0.80;;;21.60;99.90;;;;;;1038981;28;20013;-68
2022/07/29 01:17:06;;;;;;;1.25;0.70;;;21.60;99.90;;;;;;1039046;28;20013;-68
2022/07/29 01:18:07;;;;;;;2.58;0.85;;;21.60;99.90;;;;;;1039603;28;20012;-68
2022/07/29 01:18:46;;;;;;;2.28;0.70;;;21.60;99.90;;;;;;1030713;28;20022;-68
2022/07/29 01:19:47;;;;;;;1.17;0.80;;;21.60;99.90;;;;;;1031724;28;20023;-67
2022/07/29 01:20:25;;;;;;;1.25;0.90;;;21.60;99.90;;;;;;1039088;28;20010;-68
2022/07/29 01:21:12;;;;;;;1.88;0.80;;;21.60;99.90;;;;;;1039822;28;20851;-69
2022/07/29 01:21:53;;;;;;;2.30;1.23;;;21.60;99.90;;;;;;1039610;28;20009;-68
2022/07/29 01:23:08;;;;;;;0.90;0.80;;;21.60;99.90;;;;;;1039166;28;20013;-68
2022/07/29 01:24:16;;;;;;;1.48;0.90;;;21.60;99.90;;;;;;1039403;28;20020;-68
2022/07/29 01:24:46;;;;;;;2.15;0.70;;;21.50;99.90;;;;;;1039459;28;20351;-68
2022/07/29 01:25:36;;;;;;;2.07;1.07;;;21.50;99.90;;;;;;1039279;28;20077;-68
2022/07/29 01:26:25;;;;;;;1.30;0.85;;;21.50;99.90;;;;;;1039101;28;20587;-68
2022/07/29 01:27:16;;;;;;;2.83;1.13;;;21.50;99.90;;;;;;1038867;28;20704;-67
2022/07/29 01:28:32;;;;;;;1.33;0.90;;;21.50;99.90;;;;;;1034750;28;20484;-66
2022/07/29 01:29:24;;;;;;;2.05;1.08;;;21.50;99.90;;;;;;1034893;28;20485;-68
2022/07/29 01:29:58;;;;;;;2.08;1.02;;;21.50;99.90;;;;;;1038823;28;20068;-67
2022/07/29 01:30:32;;;;;;;1.15;0.90;;;21.50;99.90;;;;;;1039073;28;20021;-67
2022/07/29 01:31:04;;;;;;;1.08;0.80;;;21.50;99.90;;;;;;1038951;28;20021;-67
2022/07/29 01:32:01;;;;;;;0.88;0.55;;;21.50;99.90;;;;;;1038871;28;20083;-68
2022/07/29 01:32:34;;;;;;;3.25;0.73;;;21.50;99.90;;;;;;1038687;28;20073;-68
2022/07/29 01:33:10;;;;;;;2.45;1.20;;;21.50;99.90;;;;;;1038625;28;20028;-67
2022/07/29 01:33:52;;;;;;;1.50;1.00;;;21.50;99.90;;;;;;1039501;28;20076;-67
2022/07/29 01:34:34;;;;;;;0.95;0.70;;;21.50;99.90;;;;;;1039022;28;20021;-67
2022/07/29 01:35:12;;;;;;;1.90;0.85;;;21.50;99.90;;;;;;1038741;28;20017;-67
2022/07/29 01:35:45;;;;;;;1.52;0.80;;;21.50;99.90;;;;;;1035080;28;20076;-68
2022/07/29 01:36:25;;;;;;;1.20;0.85;;;21.50;99.90;;;;;;1041418;28;20055;-67
2022/07/29 01:37:08;;;;;;;2.97;1.02;;;21.50;99.90;;;;;;1043100;28;20467;-67
2022/07/29 01:38:13;;;;;;;1.05;0.80;;;21.50;99.90;;;;;;1043488;28;20388;-68
2022/07/29 01:38:50;;;;;;;4.40;1.10;;;21.50;99.90;;;;;;1039062;28;20021;-68
2022/07/29 01:39:29;;;;;;;1.33;0.93;;;21.50;99.90;;;;;;1038335;28;20079;-68
2022/07/29 01:40:03;;;;;;;1.58;1.00;;;21.40;99.90;;;;;;1043508;28;20032;-68
2022/07/29 01:40:44;;;;;;;1.70;0.70;;;21.40;99.90;;;;;;1043321;28;20169;-68
2022/07/29 01:41:17;;;;;;;1.92;0.90;;;21.40;99.90;;;;;;1043291;28;20017;-68
2022/07/29 01:42:06;;;;;;;1.75;0.93;;;21.40;99.90;;;;;;1043615;28;20732;-68
2022/07/29 01:42:43;;;;;;;1.08;0.80;;;21.40;99.90;;;;;;1043258;28;20013;-68
2022/07/29 01:43:21;;;;;;;1.63;1.05;;;21.40;99.90;;;;;;1042961;28;20025;-68
2022/07/29 01:43:59;;;;;;;2.53;1.13;;;21.40;99.90;;;;;;1039616;28;20025;-68
2022/07/29 01:44:34;;;;;;;1.38;0.68;;;21.40;99.90;;;;;;1039187;28;20025;-68
2022/07/29 01:45:13;;;;;;;2.72;1.17;;;21.40;99.90;;;;;;1039442;28;20464;-68
2022/07/29 01:45:50;;;;;;;1.15;0.85;;;21.40;99.90;;;;;;1038709;28;20061;-68
2022/07/29 01:46:48;;;;;;;2.83;1.05;;;21.40;99.90;;;;;;1039126;28;20063;-68
2022/07/29 01:47:23;;;;;;;1.83;1.02;;;21.40;99.90;;;;;;1042034;28;20021;-68
2022/07/29 01:48:00;;;;;;;1.15;1.05;;;21.40;99.90;;;;;;1043263;28;20048;-68
2022/07/29 01:48:39;;;;;;;1.73;1.00;;;21.40;99.90;;;;;;1042720;28;20494;-68
2022/07/29 01:49:20;;;;;;;1.50;0.90;;;21.40;99.90;;;;;;1043007;28;20033;-68
2022/07/29 01:49:55;;;;;;;0.75;0.73;;;21.40;99.90;;;;;;1042894;28;20102;-68
2022/07/29 01:50:36;;;;;;;1.42;0.70;;;21.40;99.90;;;;;;1042890;28;20025;-68
2022/07/29 01:51:14;;;;;;;1.75;0.73;;;21.40;99.90;;;;;;1038743;28;20519;-68
2022/07/29 01:52:01;;;;;;;2.97;1.33;;;21.40;99.90;;;;;;1034772;28;20048;-67
2022/07/29 01:52:42;;;;;;;2.55;1.00;;;21.40;99.90;;;;;;1038848;28;20017;-68
2022/07/29 01:53:21;;;;;;;1.98;1.17;;;21.40;99.90;;;;;;1038737;28;20028;-68
2022/07/29 01:54:10;;;;;;;1.92;0.90;;;21.40;99.90;;;;;;1042899;28;20507;-71
2022/07/29 01:54:53;;;;;;;0.93;0.70;;;21.40;99.90;;;;;;1038900;28;20111;-68
2022/07/29 01:55:30;;;;;;;1.00;0.82;;;21.40;99.90;;;;;;1042996;28;20395;-68
2022/07/29 01:56:03;;;;;;;1.05;0.80;;;21.50;99.90;;;;;;1042842;28;20136;-68
2022/07/29 01:56:36;;;;;;;1.00;0.90;;;21.50;99.90;;;;;;1043357;28;20028;-68
2022/07/29 01:57:09;;;;;;;1.73;1.05;;;21.40;99.90;;;;;;1043157;28;20009;-68
2022/07/29 01:57:43;;;;;;;2.05;1.08;;;21.40;99.90;;;;;;1043032;28;20086;-68
2022/07/29 01:58:15;;;;;;;2.25;0.98;;;21.40;99.90;;;;;;1042784;28;20118;-67
2022/07/29 01:58:48;;;;;;;1.55;0.90;;;21.40;99.90;;;;;;1043089;28;20500;-68
2022/07/29 01:59:20;;;;;;;1.85;0.90;;;21.40;99.90;;;;;;1042734;28;20025;-68
2022/07/29 01:59:52;;;;;;;2.50;1.10;;;21.40;99.90;;;;;;1043397;28;20617;-69
2022/07/29 02:00:23;;;;;;;1.25;0.90;;;21.40;99.90;;;;;;1043145;28;20518;-69
2022/07/29 02:00:57;;;;;;;2.53;0.88;;;21.40;99.90;;;;;;1043045;28;20121;-68
2022/07/29 02:01:31;;;;;;;1.52;1.13;;;21.40;99.90;;;;;;1042762;28;20024;-68
2022/07/29 02:02:02;;;;;;;1.00;0.77;;;21.40;99.90;;;;;;1042695;28;20036;-68
2022/07/29 02:02:37;;;;;;;2.25;1.10;;;21.40;99.90;;;;;;1042902;28;20349;-68
2022/07/29 02:03:11;;;;;;;0.90;0.70;;;21.40;99.90;;;;;;1042920;28;20021;-68
2022/07/29 02:03:45;;;;;;;1.38;0.90;;;21.40;99.90;;;;;;1042916;28;20033;-68
2022/07/29 02:04:18;;;;;;;1.40;0.98;;;21.40;99.90;;;;;;1038610;28;20029;-67
2022/07/29 02:04:50;;;;;;;1.33;0.88;;;21.40;99.90;;;;;;1038936;28;20029;-68
2022/07/29 02:05:23;;;;;;;1.00;0.90;;;21.40;99.90;;;;;;1039876;28;20100;-68
2022/07/29 02:05:56;;;;;;;1.55;0.98;;;21.40;99.90;;;;;;1039745;28;20025;-68
2022/07/29 02:06:29;;;;;;;1.52;0.95;;;21.30;99.90;;;;;;1042870;28;20021;-68
2022/07/29 02:07:04;;;;;;;1.85;0.90;;;21.30;99.90;;;;;;1042956;28;20017;-68
2022/07/29 02:07:37;;;;;;;1.00;1.00;;;21.30;99.90;;;;;;1038805;28;20023;-68
2022/07/29 02:08:10;;;;;;;1.45;0.88;;;21.30;99.90;;;;;;1039279;28;20039;-68
2022/07/29 02:08:42;;;;;;;1.13;0.90;;;21.30;99.90;;;;;;1038742;28;20040;-68
2022/07/29 02:09:15;;;;;;;2.10;1.20;;;21.30;99.90;;;;;;1038855;28;20021;-68
2022/07/29 02:09:49;;;;;;;1.45;0.80;;;21.30;99.90;;;;;;1038721;28;20021;-68
2022/07/29 02:10:23;;;;;;;1.42;1.00;;;21.30;99.90;;;;;;1039249;28;20029;-68
2022/07/29 02:10:55;;;;;;;1.88;0.93;;;;;;;;;;1039101;28;20104;-68
2022/07/29 02:11:28;;;;;;;1.40;1.00;;;21.30;99.90;;;;;;1038716;28;20079;-68
2022/07/29 02:12:02;;;;;;;1.60;0.82;;;21.30;99.90;;;;;;1038533;28;20033;-68
2022/07/29 02:12:35;;;;;;;1.70;1.05;;;21.30;99.90;;;;;;1038691;28;20076;-68
2022/07/29 02:13:07;;;;;;;1.70;0.93;;;21.30;99.90;;;;;;1038928;28;20415;-68
2022/07/29 02:13:39;;;;;;;0.90;0.85;;;21.30;99.90;;;;;;1034662;28;20014;-68
2022/07/29 02:14:12;;;;;;;0.80;0.80;;;21.20;99.90;;;;;;1030393;28;20688;-68
2022/07/29 02:14:47;;;;;;;2.75;0.85;;;21.30;99.90;;;;;;1031551;28;20053;-67
2022/07/29 02:15:19;;;;;;;1.13;0.82;;;21.20;99.90;;;;;;1035971;28;20006;-68
2022/07/29 02:15:51;;;;;;;1.17;1.00;;;21.30;99.90;;;;;;1038983;28;20297;-68
2022/07/29 02:16:23;;;;;;;2.38;0.98;;;21.20;99.90;;;;;;1038672;28;20028;-68
2022/07/29 02:16:58;;;;;;;1.20;0.93;;;21.20;99.90;;;;;;1038805;28;20101;-67
2022/07/29 02:17:35;;;;;;;1.65;0.82;;;21.20;99.90;;;;;;1038857;28;19998;-68
2022/07/29 02:18:12;;;;;;;2.15;1.10;;;21.20;99.90;;;;;;1038507;28;20099;-68
2022/07/29 02:18:45;;;;;;;1.60;1.00;;;21.20;99.90;;;;;;1038963;28;20147;-67
2022/07/29 02:19:18;;;;;;;1.88;1.10;;;21.20;99.90;;;;;;1038601;28;20060;-68
2022/07/29 02:19:50;;;;;;;2.00;0.93;;;21.20;99.90;;;;;;1038922;28;20507;-68
2022/07/29 02:20:22;;;;;;;1.33;0.90;;;21.20;99.90;;;;;;1038728;28;20013;-68
2022/07/29 02:20:55;;;;;;;1.35;0.90;;;21.20;99.90;;;;;;1039235;28;20013;-68
2022/07/29 02:21:27;;;;;;;1.73;0.95;;;21.20;99.90;;;;;;1038535;28;20836;-67
2022/07/29 02:22:00;;;;;;;1.38;0.95;;;21.20;99.90;;;;;;1038937;28;20005;-68
2022/07/29 02:22:33;;;;;;;1.50;1.10;;;21.20;99.90;;;;;;1038541;28;20014;-68
2022/07/29 02:23:05;;;;;;;2.25;1.08;;;21.20;99.90;;;;;;1038789;28;20029;-68
2022/07/29 02:23:39;;;;;;;1.35;0.90;;;21.20;99.90;;;;;;1038785;28;20017;-68
2022/07/29 02:24:12;;;;;;;2.03;1.10;;;21.20;99.90;;;;;;1038723;28;20519;-68
2022/07/29 02:24:43;;;;;;;1.40;0.88;;;21.20;99.90;;;;;;1039120;28;20021;-68
2022/07/29 02:25:16;;;;;;;3.67;1.00;;;21.20;99.90;;;;;;1039076;28;20093;-68
2022/07/29 02:25:53;;;;;;;1.50;1.08;;;21.20;99.90;;;;;;1038942;28;20056;-68
2022/07/29 02:26:25;;;;;;;1.42;0.85;;;21.20;99.90;;;;;;1042831;28;20078;-68
2022/07/29 02:26:59;;;;;;;1.85;0.93;;;21.20;99.90;;;;;;1043069;28;20009;-68
2022/07/29 02:27:32;;;;;;;2.45;1.13;;;21.20;99.90;;;;;;1042861;28;20017;-68
2022/07/29 02:28:04;;;;;;;1.83;1.17;;;21.20;99.90;;;;;;1042810;28;20416;-69
2022/07/29 02:28:36;;;;;;;2.40;0.90;;;21.20;99.90;;;;;;1042712;28;20020;-67
2022/07/29 02:29:08;;;;;;;1.92;0.90;;;21.20;99.90;;;;;;1042533;28;20055;-68
2022/07/29 02:29:40;;;;;;;3.85;1.40;;;21.30;99.90;;;;;;1042884;28;20009;-68
2022/07/29 02:30:12;;;;;;;1.73;0.95;;;21.20;99.90;;;;;;1042936;28;20017;-68
2022/07/29 02:30:44;;;;;;;2.90;0.93;;;21.20;99.90;;;;;;1042944;28;20044;-68
2022/07/29 02:31:19;;;;;;;1.00;0.80;;;21.20;99.90;;;;;;1042907;28;20572;-68
2022/07/29 02:31:51;;;;;;;2.15;1.08;;;21.20;99.90;;;;;;1042602;28;20040;-68
2022/07/29 02:32:24;;;;;;;1.98;0.93;;;21.20;99.90;;;;;;1043000;28;20063;-68
2022/07/29 02:32:55;;;;;;;1.02;0.73;;;21.20;99.90;;;;;;1042749;28;20021;-68
2022/07/29 02:33:27;;;;;;;2.15;1.13;;;21.20;99.90;;;;;;1043062;28;20094;-68
2022/07/29 02:33:59;;;;;;;1.63;1.10;;;21.20;99.90;;;;;;1042592;28;20044;-68
2022/07/29 02:34:33;;;;;;;1.73;1.15;;;21.20;99.90;;;;;;1042819;28;20017;-68
2022/07/29 02:35:05;;;;;;;2.22;1.10;;;21.20;99.90;;;;;;1042682;28;20016;-69
2022/07/29 02:35:36;;;;;;;1.30;1.08;;;21.20;99.90;;;;;;1043243;28;20447;-68
2022/07/29 02:36:08;;;;;;;1.55;1.25;;;21.20;99.90;;;;;;1042860;28;20051;-68
2022/07/29 02:36:40;;;;;;;1.25;0.90;;;21.20;99.90;;;;;;1042835;28;20039;-68
2022/07/29 02:37:12;;;;;;;1.48;0.80;;;21.20;99.90;;;;;;1042819;28;20023;-68
2022/07/29 02:37:45;;;;;;;1.27;1.05;;;21.20;99.90;;;;;;1042842;28;20027;-68
2022/07/29 02:39:08;;;;;;;1.65;1.13;;;21.20;99.90;;;;;;1042452;28;20028;-68
2022/07/29 02:39:42;;;;;;;1.40;1.02;;;21.20;99.90;;;;;;1043198;28;20021;-68
2022/07/29 02:40:14;;;;;;;2.38;1.35;;;21.20;99.90;;;;;;1042942;28;20012;-68
2022/07/29 02:40:46;;;;;;;2.08;1.00;;;21.20;99.90;;;;;;1043348;28;20059;-68
2022/07/29 02:41:29;;;;;;;1.60;0.90;;;21.20;99.90;;;;;;1043043;28;20013;-68
2022/07/29 02:42:05;;;;;;;3.63;1.23;;;21.20;99.90;;;;;;1043286;28;20009;-68
2022/07/29 02:42:37;;;;;;;1.73;0.93;;;21.20;99.90;;;;;;1043414;28;20086;-68
2022/07/29 02:43:09;;;;;;;1.58;1.20;;;21.20;99.90;;;;;;1042762;28;20417;-68
2022/07/29 02:43:41;;;;;;;1.60;0.90;;;21.20;99.90;;;;;;1042646;28;20041;-68
2022/07/29 02:44:16;;;;;;;2.40;1.17;;;21.20;99.90;;;;;;1042755;28;20062;-68
2022/07/29 02:44:47;;;;;;;4.22;1.45;;;21.20;99.90;;;;;;1038669;28;20036;-68
2022/07/29 02:45:18;;;;;;;2.83;0.90;;;21.10;99.90;;;;;;1035463;28;20014;-68
2022/07/29 02:45:52;;;;;;;1.53;0.90;;;21.10;99.90;;;;;;1038717;28;20100;-68
2022/07/29 02:46:32;;;;;;;1.10;1.00;;;21.20;99.90;;;;;;1035039;28;20026;-68
2022/07/29 02:47:36;;;;;;;0.80;0.70;;;21.10;99.90;;;;;;1036588;28;20022;-68
2022/07/29 02:48:12;;;;;;;1.65;0.90;;;21.10;99.90;;;;;;1036104;28;20028;-68
2022/07/29 02:49:00;;;;;;;1.27;1.02;;;21.10;99.90;;;;;;1035545;28;20033;-68
2022/07/29 02:49:39;;;;;;;2.53;1.30;;;21.10;99.90;;;;;;1038536;28;20370;-68
2022/07/29 02:50:15;;;;;;;1.98;1.05;;;21.10;99.90;;;;;;1038695;28;20022;-69
2022/07/29 02:50:51;;;;;;;2.03;1.13;;;21.10;99.90;;;;;;1042573;28;20036;-68
2022/07/29 02:51:33;;;;;;;2.20;1.10;;;21.10;99.90;;;;;;1042934;28;20013;-68
2022/07/29 02:52:11;;;;;;;1.33;0.90;;;21.10;99.90;;;;;;1042831;28;20033;-68
2022/07/29 02:52:43;;;;;;;1.75;1.15;;;21.10;99.90;;;;;;1042802;28;20168;-68
2022/07/29 02:53:18;;;;;;;1.20;1.10;;;21.10;99.90;;;;;;1042894;28;20014;-67
2022/07/29 02:53:52;;;;;;;2.78;1.27;;;21.10;99.90;;;;;;1042361;28;20839;-67
2022/07/29 02:54:34;;;;;;;1.38;1.05;;;21.10;99.90;;;;;;1042517;28;20020;-68
2022/07/29 02:55:17;;;;;;;2.15;1.02;;;21.10;99.90;;;;;;1042806;28;20142;-68
2022/07/29 02:56:12;;;;;;;1.75;1.08;;;21.10;99.90;;;;;;1043107;28;20032;-68
2022/07/29 02:56:45;;;;;;;0.80;0.80;;;21.10;99.90;;;;;;1043253;28;20028;-68
2022/07/29 02:57:42;;;;;;;1.73;1.25;;;21.10;99.90;;;;;;1042880;28;20020;-68
2022/07/29 02:58:19;;;;;;;2.35;1.23;;;21.10;99.90;;;;;;1039800;28;20022;-67
2022/07/29 02:58:55;;;;;;;3.92;1.20;;;21.10;99.90;;;;;;1039235;28;20029;-68
2022/07/29 02:59:30;;;;;;;2.67;1.23;;;21.10;99.90;;;;;;1038814;28;20381;-67
2022/07/29 03:00:05;;;;;;;1.58;1.00;;;21.10;99.90;;;;;;1039075;28;20098;-68
2022/07/29 03:00:38;;;;;;;3.08;1.20;;;21.10;99.90;;;;;;1039507;28;20467;-67
2022/07/29 03:01:15;;;;;;;2.47;1.27;;;21.10;99.90;;;;;;1038795;28;20029;-68
2022/07/29 03:01:46;;;;;;;1.13;1.00;;;21.00;99.90;;;;;;1038574;28;20021;-70
2022/07/29 03:02:18;;;;;;;1.55;0.88;;;21.10;99.90;;;;;;1040225;28;20028;-68
2022/07/29 03:02:52;;;;;;;1.45;1.00;;;21.10;99.90;;;;;;1042850;28;20027;-68
2022/07/29 03:03:26;;;;;;;2.45;0.88;;;21.10;99.90;;;;;;1042599;28;20017;-68